Time;durP1;ratioP1;P1;durP2;ratioP2;P2;SDS_P1;SDS_P2;PMS_P1;PMS_P2;Temp;Humidity;BMP_temperature;BMP_pressure;BME280_temperature;BME280_humidity;BME280_pressure;Samples;Min_cycle;Max_cycle;Signal;HPM_P1;HPM_P2
2024/03/04 00:01:32;;;;;;;64.35;32.50;;;;;;;-144.05;89.94;56940.16;5012134;28;20101;-79
2024/03/04 00:03:58;;;;;;;65.88;32.45;;;;;;;-144.05;90.36;56942.28;5011864;28;20116;-82
2024/03/04 00:06:24;;;;;;;60.80;30.55;;;;;;;-144.05;90.16;56940.16;5010356;28;20029;-81
2024/03/04 00:08:51;;;;;;;57.35;30.13;;;6.90;99.90;;;-144.05;90.06;56918.94;5010531;28;20399;-83
2024/03/04 00:11:19;;;;;;;60.45;28.08;;;;;;;-144.05;90.12;56938.03;5012203;28;20407;-82
2024/03/04 00:13:47;;;;;;;54.20;27.90;;;;;;;-144.05;89.97;56918.94;5014606;28;20022;-81
2024/03/04 00:16:13;;;;;;;54.67;26.70;;;6.20;99.90;;;-144.05;90.30;56938.03;5013569;28;20372;-80
2024/03/04 00:18:40;;;;;;;52.90;26.48;;;;;;;-144.05;90.21;56931.66;5027279;28;20029;-79
2024/03/04 00:21:07;;;;;;;48.60;25.92;;;;;;;-144.05;90.40;56923.19;5013740;28;20038;-82
2024/03/04 00:23:33;;;;;;;50.78;25.77;;;6.40;99.90;;;-144.05;90.53;56891.31;5027283;28;20510;-81
2024/03/04 00:26:02;;;;;;;48.33;24.77;;;6.50;99.90;;;-144.05;91.03;56940.16;5010874;28;20034;-82
2024/03/04 00:28:28;;;;;;;45.50;22.98;;;;;;;-144.05;90.45;56931.66;5011099;28;20035;-84
2024/03/04 00:30:54;;;;;;;50.22;26.60;;;;;;;-144.05;90.94;56959.28;5011814;28;20026;-82
2024/03/04 00:33:20;;;;;;;45.60;22.73;;;3.90;99.90;;;-144.05;89.86;56948.66;5008644;28;20057;-82
2024/03/04 00:35:46;;;;;;;45.25;23.92;;;;;;;-144.05;90.04;56916.81;5011852;28;20084;-82
2024/03/04 00:38:12;;;;;;;41.33;20.60;;;6.60;99.90;;;-144.05;89.84;56959.28;5012114;28;20487;-80
2024/03/04 00:40:38;;;;;;;41.38;22.02;;;7.30;99.90;;;-144.05;90.25;56961.41;5011658;28;20184;-81
2024/03/04 00:43:04;;;;;;;36.83;21.27;;;;;;;-144.05;89.86;56963.53;5010293;28;20487;-80
2024/03/04 00:45:31;;;;;;;36.65;21.48;;;7.40;99.90;;;-144.05;90.80;56923.19;5010287;28;20117;-81
2024/03/04 00:47:57;;;;;;;36.53;21.10;;;7.60;99.90;;;-144.05;90.12;56931.66;5009971;28;20030;-80
2024/03/04 00:50:23;;;;;;;40.63;21.77;;;7.00;99.90;;;-144.05;90.09;56916.81;5010145;28;20069;-83
2024/03/04 00:52:49;;;;;;;40.03;21.80;;;;;;;-144.05;90.05;56946.53;5011739;28;20098;-82
2024/03/04 00:55:17;;;;;;;38.88;20.05;;;6.50;99.90;;;-144.05;90.47;56965.66;5011712;28;20033;-84
2024/03/04 00:57:43;;;;;;;34.08;20.20;;;;;;;-144.05;90.66;56935.91;5006726;28;20502;-82
2024/03/04 01:00:14;;;;;;;39.65;21.17;;;;;;;-144.05;90.56;56948.66;5009914;28;20167;-83
2024/03/04 01:02:44;;;;;;;36.63;21.40;;;7.10;99.90;;;-144.05;90.29;56925.28;5011545;28;20025;-83
2024/03/04 01:05:13;;;;;;;36.67;22.08;;;;;;;-144.05;90.65;56933.78;5011737;28;20105;-82
2024/03/04 01:07:39;;;;;;;39.10;21.33;;;6.70;99.90;;;-144.05;90.49;56940.16;5010322;28;20034;-83
2024/03/04 01:10:06;;;;;;;40.78;20.88;;;6.70;99.90;;;-144.05;90.50;56957.16;5010253;28;20530;-81
2024/03/04 01:12:32;;;;;;;36.42;21.45;;;;;;;-144.05;90.57;56927.41;5029074;28;20030;-81
2024/03/04 01:14:59;;;;;;;43.03;24.00;;;;;;;-144.05;90.83;56946.53;5010682;28;20026;-80
2024/03/04 01:17:25;;;;;;;39.40;23.73;;;7.30;99.90;;;-144.05;91.12;56923.19;5011456;28;20030;-81
2024/03/04 01:19:51;;;;;;;41.38;24.50;;;6.50;99.90;;;-144.05;90.94;56955.03;5011821;28;20064;-80
2024/03/04 01:22:18;;;;;;;44.03;25.15;;;6.90;99.90;;;-144.05;90.77;56935.91;5012060;28;20030;-82
2024/03/04 01:24:50;;;;;;;41.75;23.45;;;7.90;99.90;;;-144.05;91.24;56938.03;5012248;28;20029;-82
2024/03/04 01:27:17;;;;;;;46.78;26.35;;;6.30;99.90;;;-144.05;91.82;56925.28;5010207;28;20038;-83
2024/03/04 01:29:43;;;;;;;44.22;26.48;;;6.80;99.90;;;-144.05;91.46;56938.03;5011832;28;20059;-82
2024/03/04 01:32:10;;;;;;;45.78;26.55;;;;;;;-144.05;92.08;56938.03;5010643;28;20026;-84
2024/03/04 01:34:40;;;;;;;44.25;26.83;;;8.20;99.90;;;-144.05;91.33;56989.00;5014320;28;20034;-83
2024/03/04 01:37:08;;;;;;;49.50;26.58;;;6.90;99.90;;;-144.05;91.82;56927.41;5015779;28;20404;-85
2024/03/04 01:39:35;;;;;;;51.95;28.30;;;7.40;99.90;;;-144.05;91.65;56916.81;5015872;28;20036;-82
2024/03/04 01:42:01;;;;;;;53.70;28.73;;;6.10;99.90;;;-144.05;91.79;56921.06;5015005;28;20049;-81
2024/03/04 01:44:35;;;;;;;59.58;32.08;;;7.00;99.90;;;-144.05;92.20;56938.03;5015781;28;20042;-82
2024/03/04 01:47:07;;;;;;;57.88;32.72;;;7.10;99.90;;;-144.05;92.61;56955.03;5016016;28;20026;-81
2024/03/04 01:49:37;;;;;;;60.55;34.45;;;7.30;99.90;;;-144.05;92.38;56921.06;5030818;28;20050;-83
2024/03/04 01:52:05;;;;;;;62.22;33.83;;;7.80;99.90;;;-144.05;91.89;56940.16;5015067;28;20033;-83
2024/03/04 01:54:38;;;;;;;69.70;35.50;;;6.90;99.90;;;-144.05;92.17;56940.16;5017318;28;20029;-82
2024/03/04 01:57:06;;;;;;;73.32;38.75;;;8.30;99.90;;;-144.05;91.58;56923.19;5018938;28;20091;-82
2024/03/04 01:59:36;;;;;;;78.85;40.97;;;6.50;99.90;;;-144.05;91.56;56935.91;5019896;28;20034;-82
2024/03/04 02:02:02;;;;;;;71.68;38.55;;;7.30;99.90;;;-144.05;91.28;56916.81;5021273;28;20034;-79
2024/03/04 02:04:30;;;;;;;77.85;39.65;;;7.30;99.90;;;-144.05;91.10;56946.53;5029871;28;20034;-81
2024/03/04 02:06:56;;;;;;;72.32;39.33;;;7.30;99.90;;;-144.05;90.83;56931.66;5012604;28;20096;-80
2024/03/04 02:09:28;;;;;;;71.10;40.53;;;7.60;99.90;;;-144.05;91.13;56927.41;5012621;28;20129;-81
2024/03/04 02:11:54;;;;;;;79.53;40.75;;;7.30;99.90;;;-144.05;91.31;56940.16;5014090;28;20071;-81
2024/03/04 02:14:21;;;;;;;75.40;40.65;;;;;;;-144.05;91.03;56933.78;5025946;28;20122;-80
2024/03/04 02:16:46;;;;;;;73.20;40.13;;;6.80;99.90;;;-144.05;91.23;56925.28;5012367;28;20159;-80
2024/03/04 02:19:19;;;;;;;80.10;40.88;;;7.70;99.90;;;-144.05;91.20;56927.41;5013153;28;20541;-80
2024/03/04 02:22:02;;;;;;;83.57;43.95;;;6.90;99.90;;;-144.05;90.83;56923.19;5013548;28;20040;-80
2024/03/04 02:24:28;;;;;;;83.20;43.28;;;;;;;-144.05;90.52;56948.66;5011889;28;20096;-80
2024/03/04 02:26:54;;;;;;;79.13;42.47;;;;;;;-144.05;90.52;56927.41;5013385;28;20446;-80
2024/03/04 02:29:20;;;;;;;79.55;42.05;;;8.40;99.90;;;-144.05;90.11;56908.31;5005160;28;20022;-80
2024/03/04 02:31:47;;;;;;;80.00;41.83;;;7.80;99.90;;;-144.05;89.99;56927.41;5008687;28;20501;-82
2024/03/04 02:34:14;;;;;;;75.53;42.05;;;7.80;99.90;;;-144.05;90.17;56908.31;5014432;28;20057;-82
2024/03/04 02:36:41;;;;;;;81.22;42.35;;;7.80;99.90;;;-144.05;90.37;56935.91;5015326;28;20096;-78
2024/03/04 02:39:10;;;;;;;87.68;42.83;;;;;;;-144.05;90.19;56931.66;5011857;28;20034;-81
2024/03/04 02:41:40;;;;;;;73.45;41.75;;;6.70;99.90;;;-144.05;89.95;56908.31;5013236;28;20029;-81
2024/03/04 02:44:07;;;;;;;75.60;42.28;;;7.80;99.90;;;-144.05;89.51;56904.06;5012639;28;20044;-80
2024/03/04 02:46:34;;;;;;;78.15;44.33;;;6.70;99.90;;;-144.05;89.61;56944.41;5011607;28;20343;-79
2024/03/04 02:48:59;;;;;;;82.20;45.25;;;8.60;99.90;;;-144.05;90.15;56938.03;5012824;28;20022;-82
2024/03/04 02:51:26;;;;;;;84.30;42.95;;;6.70;99.90;;;-144.05;90.45;56942.28;5013269;28;20509;-80
2024/03/04 02:53:51;;;;;;;87.05;43.75;;;6.70;99.90;;;-144.05;90.56;56938.03;5011260;28;20072;-81
2024/03/04 02:56:18;;;;;;;75.75;41.78;;;;;;;-144.05;89.71;56923.19;5011635;28;20113;-80
2024/03/04 02:58:43;;;;;;;82.53;44.72;;;6.70;99.90;;;-144.05;90.11;56925.28;5010923;28;20057;-82
2024/03/04 03:01:10;;;;;;;86.20;41.83;;;;;;;-144.05;89.94;56912.56;5011397;28;20438;-81
2024/03/04 03:03:36;;;;;;;81.75;42.47;;;;;;;-144.05;90.40;56925.28;5012276;28;20084;-82
2024/03/04 03:06:04;;;;;;;82.22;43.03;;;;;;;-144.05;90.07;56925.28;5012348;28;20425;-80
2024/03/04 03:08:29;;;;;;;75.47;42.45;;;8.50;99.90;;;-144.05;89.43;56929.53;5012596;28;20064;-84
2024/03/04 03:10:57;;;;;;;84.40;44.40;;;;;;;-144.05;90.27;56925.28;5012913;28;20034;-78
2024/03/04 03:13:23;;;;;;;84.15;43.08;;;;;;;-144.05;90.12;56912.56;5012017;28;20029;-80
2024/03/04 03:15:50;;;;;;;91.30;44.70;;;;;;;-144.05;89.95;56906.19;5023155;28;20025;-80
2024/03/04 03:18:17;;;;;;;83.10;44.40;;;8.80;99.90;;;-144.05;90.06;56935.91;5031024;28;20452;-82
2024/03/04 03:20:43;;;;;;;89.20;44.83;;;6.50;99.90;;;-144.05;90.05;56942.28;5030489;28;20072;-83
2024/03/04 03:23:09;;;;;;;84.65;43.40;;;7.10;99.90;;;-144.05;90.07;56942.28;5029520;28;20014;-80
2024/03/04 03:25:35;;;;;;;92.13;45.17;;;6.90;99.90;;;-144.05;89.89;56929.53;5028752;28;20108;-83
2024/03/04 03:28:01;;;;;;;88.55;45.65;;;6.90;99.90;;;-144.05;89.87;56925.28;5010462;28;20349;-81
2024/03/04 03:30:27;;;;;;;100.00;48.47;;;;;;;-144.05;89.79;56933.78;5011998;28;20172;-79
2024/03/04 03:32:54;;;;;;;100.03;50.40;;;;;;;-144.05;90.23;56938.03;5012003;28;20140;-80
2024/03/04 03:35:19;;;;;;;100.80;48.88;;;6.50;99.90;;;-144.05;90.02;56940.16;5011880;28;20129;-80
2024/03/04 03:37:47;;;;;;;94.93;44.30;;;7.50;99.90;;;-144.05;90.14;56910.44;5026950;28;20056;-78
2024/03/04 03:40:14;;;;;;;97.72;46.38;;;;;;;-144.05;90.09;56938.03;5011240;28;20041;-79
2024/03/04 03:42:41;;;;;;;99.53;48.45;;;6.90;99.90;;;-144.05;90.15;56948.66;5012126;28;20041;-82
2024/03/04 03:45:08;;;;;;;93.20;46.33;;;;;;;-144.05;90.43;56944.41;5012145;28;20368;-82
2024/03/04 03:47:34;;;;;;;101.25;47.20;;;6.90;99.90;;;-144.05;90.21;56929.53;5010829;28;20034;-81
2024/03/04 03:50:03;;;;;;;92.60;46.85;;;;;;;-144.05;90.83;56918.94;5010779;28;20553;-82
2024/03/04 03:52:31;;;;;;;93.72;45.35;;;;;;;-144.05;90.48;56940.16;5010437;28;20026;-80
2024/03/04 03:54:57;;;;;;;94.68;44.95;;;6.80;99.90;;;-144.05;90.13;56935.91;5011444;28;20037;-80
2024/03/04 03:57:23;;;;;;;92.53;45.40;;;6.60;99.90;;;-144.05;90.74;56914.69;5013252;28;20128;-83
2024/03/04 03:59:49;;;;;;;95.07;44.08;;;;;;;-144.05;90.54;56925.28;5012326;28;20026;-82
2024/03/04 04:02:15;;;;;;;99.57;44.30;;;8.40;99.90;;;-144.05;90.60;56929.53;5011658;28;20379;-82
2024/03/04 04:04:42;;;;;;;94.70;44.20;;;;;;;-144.05;90.75;56921.06;5010185;28;20033;-81
2024/03/04 04:07:08;;;;;;;96.00;44.95;;;8.70;99.90;;;-144.05;90.61;56940.16;5011489;28;20460;-82
2024/03/04 04:09:34;;;;;;;104.05;48.60;;;;;;;-144.05;90.55;56955.03;5011439;28;20034;-80
2024/03/04 04:12:00;;;;;;;98.55;48.38;;;;;;;-144.05;90.24;56940.16;5010339;28;20025;-81
2024/03/04 04:14:26;;;;;;;106.15;48.10;;;7.20;99.90;;;-144.05;90.65;56933.78;5011378;28;20427;-80
2024/03/04 04:16:52;;;;;;;93.75;44.70;;;7.00;99.90;;;-144.05;91.15;56925.28;5011635;28;20100;-82
2024/03/04 04:19:18;;;;;;;90.35;43.50;;;7.10;99.90;;;-144.05;91.28;56938.03;5011269;28;20657;-81
2024/03/04 04:21:44;;;;;;;99.03;43.33;;;7.20;99.90;;;-144.05;91.08;56938.03;5011523;28;20029;-83
2024/03/04 04:24:10;;;;;;;97.05;44.28;;;7.00;99.90;;;-144.05;91.35;56940.16;5011979;28;20033;-81
2024/03/04 04:26:36;;;;;;;97.47;43.42;;;6.80;99.90;;;-144.05;91.43;56935.91;5011433;28;20022;-81
2024/03/04 04:29:03;;;;;;;93.45;44.60;;;7.20;99.90;;;-144.05;91.65;56938.03;5010033;28;20034;-81
2024/03/04 04:31:29;;;;;;;103.63;44.85;;;6.80;99.90;;;-144.05;91.55;56933.78;5011818;28;20061;-78
2024/03/04 04:33:55;;;;;;;89.40;42.13;;;;;;;-144.05;91.14;56929.53;5011396;28;20430;-80
2024/03/04 04:36:21;;;;;;;97.20;43.03;;;;;;;-144.05;91.43;56923.19;5023116;28;20125;-80
2024/03/04 04:38:47;;;;;;;104.13;43.00;;;7.30;99.90;;;-144.05;91.74;56944.41;5010816;28;20121;-80
2024/03/04 04:41:13;;;;;;;101.30;42.70;;;7.60;99.90;;;-144.05;91.48;56938.03;5009796;28;20483;-80
2024/03/04 04:43:39;;;;;;;99.40;43.38;;;;;;;-144.05;91.18;56935.91;5026374;28;20032;-81
2024/03/04 04:46:05;;;;;;;103.32;42.80;;;;;;;-144.05;91.40;56931.66;5010308;28;20026;-81
2024/03/04 04:48:33;;;;;;;101.30;42.97;;;;;;;-144.05;92.46;56946.53;5011633;28;20116;-79
2024/03/04 04:51:00;;;;;;;86.07;42.28;;;7.30;99.90;;;-144.05;91.94;56910.44;5009781;28;20044;-79
2024/03/04 04:53:26;;;;;;;97.38;42.50;;;;;;;-144.05;91.91;56925.28;5026085;28;20084;-80
2024/03/04 04:55:53;;;;;;;97.00;42.03;;;;;;;-144.05;91.32;56921.06;5009715;28;20096;-82
2024/03/04 04:58:19;;;;;;;99.00;43.53;;;;;;;-144.05;91.83;56918.94;5010965;28;20026;-79
2024/03/04 05:00:45;;;;;;;99.68;44.08;;;7.60;99.90;;;-144.05;91.37;56940.16;5009605;28;20161;-82
2024/03/04 05:03:10;;;;;;;101.00;43.78;;;8.20;99.90;;;-144.05;91.60;56931.66;5011046;28;20022;-82
2024/03/04 05:05:36;;;;;;;100.88;44.00;;;6.80;99.90;;;-144.05;91.92;56935.91;5011353;28;20105;-81
2024/03/04 05:08:05;;;;;;;114.43;47.28;;;;;;;-144.05;91.94;56944.41;5015796;28;20525;-84
2024/03/04 05:10:31;;;;;;;111.55;45.08;;;;;;;-144.05;91.88;56944.41;5030767;28;20080;-82
2024/03/04 05:12:57;;;;;;;110.10;43.90;;;;;;;-144.05;91.58;56942.28;5014751;28;20061;-83
2024/03/04 05:15:24;;;;;;;112.93;48.22;;;6.70;99.90;;;-144.05;91.78;56925.28;5014918;28;20025;-83
2024/03/04 05:17:50;;;;;;;122.75;48.42;;;;;;;-144.05;91.35;56944.41;5013107;28;20025;-81
2024/03/04 05:20:16;;;;;;;114.43;46.97;;;;;;;-144.05;92.13;56946.53;5014517;28;20033;-82
2024/03/04 05:22:43;;;;;;;105.35;46.15;;;7.20;99.90;;;-144.05;91.93;56921.06;5014706;28;20048;-81
2024/03/04 05:25:10;;;;;;;110.32;46.80;;;;;;;-144.05;92.28;56921.06;5015663;28;20044;-82
2024/03/04 05:27:35;;;;;;;106.43;47.45;;;7.70;99.90;;;-144.05;92.02;56944.41;5014749;28;20029;-83
2024/03/04 05:30:03;;;;;;;113.07;45.80;;;7.00;99.90;;;-144.05;91.83;56929.53;5014391;28;20033;-82
2024/03/04 05:32:29;;;;;;;110.10;45.72;;;6.90;99.90;;;-144.05;92.03;56918.94;5013630;28;20033;-80
2024/03/04 05:34:55;;;;;;;107.15;46.03;;;7.20;99.90;;;-144.05;91.98;56929.53;5013189;28;20037;-83
2024/03/04 05:37:21;;;;;;;110.00;45.17;;;;;;;-144.05;91.78;56908.31;5011032;28;20053;-81
2024/03/04 05:39:48;;;;;;;101.40;42.63;;;;;;;-144.05;91.98;56927.41;5013493;28;20534;-81
2024/03/04 05:42:15;;;;;;;95.28;40.95;;;;;;;-144.05;92.27;56927.41;5015212;28;20039;-82
2024/03/04 05:44:41;;;;;;;99.20;42.70;;;;;;;-144.05;92.19;56925.28;5012986;28;20033;-81
2024/03/04 05:47:08;;;;;;;112.97;43.80;;;;;;;-144.05;91.92;56906.19;5014191;28;20422;-80
2024/03/04 05:49:35;;;;;;;101.43;43.30;;;7.60;99.90;;;-144.05;92.64;56935.91;5013012;28;20030;-83
2024/03/04 05:52:02;;;;;;;100.47;42.40;;;6.70;99.90;;;-144.05;92.29;56942.28;5013471;28;20583;-83
2024/03/04 05:54:28;;;;;;;106.57;45.97;;;;;;;-144.05;92.45;56921.06;5013131;28;20087;-83
2024/03/04 05:56:54;;;;;;;99.68;44.83;;;;;;;-144.05;92.73;56929.53;5014723;28;20029;-82
2024/03/04 05:59:20;;;;;;;106.38;42.33;;;;;;;-144.05;92.60;56914.69;5016110;28;20049;-83
2024/03/04 06:01:46;;;;;;;94.53;40.30;;;6.70;99.90;;;-144.05;92.24;56944.41;5013866;28;20029;-82
2024/03/04 06:04:12;;;;;;;95.35;40.30;;;;;;;-144.05;93.05;56935.91;5013234;28;20034;-81
2024/03/04 06:06:40;;;;;;;107.35;44.47;;;7.20;99.90;;;-144.05;92.80;56929.53;5012565;28;20033;-82
2024/03/04 06:09:08;;;;;;;96.40;40.88;;;7.10;99.90;;;-144.05;93.18;56955.03;5012833;28;20030;-80
2024/03/04 06:11:34;;;;;;;92.45;40.38;;;;;;;-144.05;93.20;56923.19;5029421;28;20038;-81
2024/03/04 06:14:00;;;;;;;99.32;40.30;;;6.60;99.90;;;-144.05;92.99;56950.78;5014064;28;20030;-80
2024/03/04 06:16:26;;;;;;;98.90;40.55;;;6.30;99.90;;;-144.05;92.81;56921.06;5014158;28;20036;-82
2024/03/04 06:18:52;;;;;;;99.85;42.20;;;8.60;99.90;;;-144.05;93.07;56965.66;5021262;28;20022;-82
2024/03/04 06:21:18;;;;;;;96.00;39.75;;;6.80;99.90;;;-144.05;92.93;56914.69;5016243;28;20038;-80
2024/03/04 06:23:44;;;;;;;92.95;39.45;;;;;;;-144.05;93.51;56950.78;5016300;28;20041;-80
2024/03/04 06:26:11;;;;;;;95.35;38.65;;;6.30;99.90;;;-144.05;93.20;56927.41;5016488;28;20092;-81
2024/03/04 06:28:40;;;;;;;94.85;41.35;;;7.50;99.90;;;-144.05;93.05;56944.41;5014225;28;20053;-79
2024/03/04 06:31:06;;;;;;;92.15;37.47;;;7.70;99.90;;;-144.05;92.85;56929.53;5014569;28;20495;-82
2024/03/04 06:33:32;;;;;;;88.30;38.38;;;6.60;99.90;;;-144.05;93.31;56946.53;5014281;28;20506;-80
2024/03/04 06:35:58;;;;;;;94.80;39.30;;;;;;;-144.05;93.25;56929.53;5015621;28;20034;-83
2024/03/04 06:38:25;;;;;;;93.55;37.63;;;;;;;-144.05;93.07;56944.41;5031166;28;20030;-84
2024/03/04 06:40:52;;;;;;;87.65;36.88;;;;;;;-144.05;93.01;56935.91;5014146;28;20133;-78
2024/03/04 06:43:18;;;;;;;92.07;36.60;;;7.80;99.90;;;-144.05;93.46;56931.66;5013566;28;20446;-82
2024/03/04 06:45:44;;;;;;;95.63;38.83;;;;;;;-144.05;93.52;56929.53;5014469;28;20026;-80
2024/03/04 06:48:10;;;;;;;86.00;37.72;;;8.20;99.90;;;-144.05;93.24;56912.56;5016629;28;20026;-83
2024/03/04 06:50:36;;;;;;;94.30;37.20;;;7.10;99.90;;;-144.05;92.98;56969.91;5017611;28;20057;-81
2024/03/04 06:53:03;;;;;;;87.40;36.97;;;;;;;-144.05;94.00;56929.53;5017627;28;20022;-80
2024/03/04 06:55:28;;;;;;;96.65;38.40;;;7.70;99.90;;;-144.05;93.47;56912.56;5014586;28;20398;-82
2024/03/04 06:57:54;;;;;;;91.07;38.30;;;7.00;99.90;;;-144.05;93.58;56921.06;5016417;28;20060;-82
2024/03/04 07:00:21;;;;;;;90.97;38.92;;;7.50;99.90;;;-144.05;93.31;56933.78;5017458;28;20018;-79
2024/03/04 07:02:47;;;;;;;90.78;39.75;;;8.80;99.90;;;-144.05;93.15;56918.94;5016408;28;20026;-80
2024/03/04 07:05:12;;;;;;;98.38;38.72;;;6.60;99.90;;;-144.05;93.27;56904.06;5017135;28;20051;-83
2024/03/04 07:07:38;;;;;;;88.28;37.88;;;7.90;99.90;;;-144.05;93.47;56921.06;5032861;28;20026;-82
2024/03/04 07:10:07;;;;;;;87.43;36.70;;;7.20;99.90;;;-144.05;93.47;56959.28;5017666;28;20061;-81
2024/03/04 07:12:34;;;;;;;84.57;36.65;;;7.60;99.90;;;-144.05;93.08;56925.28;5016497;28;20018;-81
2024/03/04 07:15:00;;;;;;;88.95;36.65;;;4.70;99.90;;;-144.05;92.94;56921.06;5031617;28;20018;-81
2024/03/04 07:17:26;;;;;;;88.50;36.92;;;;;;;-144.05;93.00;56925.28;5030650;28;20029;-78
2024/03/04 07:19:52;;;;;;;82.53;35.08;;;;;;;-144.05;92.54;56929.53;5015704;28;20104;-80
2024/03/04 07:22:19;;;;;;;87.07;37.03;;;;;;;-144.05;92.60;56929.53;5014114;28;20380;-77
2024/03/04 07:24:45;;;;;;;91.38;39.20;;;8.20;99.90;;;-144.05;92.57;56914.69;5014172;28;20026;-80
2024/03/04 07:27:11;;;;;;;92.90;38.88;;;8.50;99.90;;;-144.05;92.50;56942.28;5018386;28;20105;-79
2024/03/04 07:29:37;;;;;;;99.13;40.22;;;;;;;-144.05;92.84;56897.69;5016514;28;20062;-81
2024/03/04 07:32:04;;;;;;;100.53;40.38;;;7.00;99.90;;;-144.05;92.83;56925.28;5017281;28;20109;-79
2024/03/04 07:34:30;;;;;;;104.03;42.80;;;8.50;99.90;;;-144.05;92.47;56925.28;5016259;28;20057;-81
2024/03/04 07:36:57;;;;;;;98.60;41.20;;;;;;;-144.05;92.53;56959.28;5017619;28;20026;-78
2024/03/04 07:39:23;;;;;;;96.18;40.65;;;7.20;99.90;;;-144.05;92.23;56929.53;5016999;28;20021;-81
2024/03/04 07:41:50;;;;;;;110.28;42.72;;;7.30;99.90;;;-144.05;92.79;56933.78;5031500;28;20222;-81
2024/03/04 07:44:17;;;;;;;105.63;42.33;;;8.40;99.90;;;-144.05;92.70;56938.03;5015509;28;20451;-81
2024/03/04 07:46:44;;;;;;;116.07;44.22;;;7.80;99.90;;;-144.05;92.79;56925.28;5016507;28;20093;-79
2024/03/04 07:49:10;;;;;;;110.35;44.70;;;8.30;99.90;;;-144.05;92.59;56946.53;5017164;28;20061;-80
2024/03/04 07:51:36;;;;;;;104.18;42.40;;;;;;;-144.05;92.92;56916.81;5032162;28;20152;-80
2024/03/04 07:54:04;;;;;;;103.78;44.28;;;4.40;99.90;;;-144.05;93.11;56946.53;5016005;28;20029;-82
2024/03/04 07:56:33;;;;;;;106.78;44.63;;;8.10;99.90;;;-144.05;92.44;56942.28;5017480;28;20094;-81
2024/03/04 07:59:00;;;;;;;105.57;40.80;;;8.30;99.90;;;-144.05;92.79;56880.69;5014157;28;20079;-79
2024/03/04 08:01:26;;;;;;;107.22;44.10;;;;;;;-144.05;92.71;56957.16;5014224;28;20025;-83
2024/03/04 08:03:52;;;;;;;117.57;43.80;;;6.80;99.90;;;-144.05;92.44;56935.91;5015488;28;20037;-83
2024/03/04 08:06:20;;;;;;;117.10;44.88;;;8.30;99.90;;;-144.05;92.92;56942.28;5014508;28;20034;-83
2024/03/04 08:08:48;;;;;;;105.78;41.28;;;;;;;-144.05;92.71;56950.78;5015741;28;20029;-82
2024/03/04 08:11:15;;;;;;;101.93;40.15;;;7.00;99.90;;;-144.05;92.63;56942.28;5015918;28;20115;-85
2024/03/04 08:13:41;;;;;;;89.65;36.97;;;6.80;99.90;;;-144.05;92.42;56961.41;5016504;28;20049;-82
2024/03/04 08:16:08;;;;;;;80.22;32.97;;;;;;;-144.05;91.62;56918.94;5024674;28;20033;-81
2024/03/04 08:18:34;;;;;;;77.57;34.05;;;7.20;99.90;;;-144.05;91.33;56948.66;5027537;28;20049;-82
2024/03/04 08:21:00;;;;;;;75.45;30.77;;;7.50;99.90;;;-144.05;91.61;56950.78;5014717;28;20021;-83
2024/03/04 08:23:26;;;;;;;68.85;29.77;;;;;;;-144.05;90.87;56895.56;5015664;28;20499;-79
2024/03/04 08:25:53;;;;;;;61.30;28.65;;;8.30;99.90;;;-144.05;90.74;56921.06;5015597;28;20033;-81
2024/03/04 08:28:18;;;;;;;64.38;28.65;;;6.30;99.90;;;-144.05;90.55;56931.66;5014917;28;20033;-83
2024/03/04 08:30:44;;;;;;;65.03;29.40;;;5.20;99.90;;;-144.05;90.47;56929.53;5017203;28;20018;-83
2024/03/04 08:33:10;;;;;;;63.65;26.20;;;7.60;99.90;;;-144.05;90.38;56933.78;5015581;28;20026;-80
2024/03/04 08:35:36;;;;;;;50.92;23.90;;;;;;;-144.05;89.84;56965.66;5016291;28;20049;-79
2024/03/04 08:38:03;;;;;;;80.10;38.85;;;8.30;99.90;;;-144.05;89.54;56931.66;5018838;28;20033;-82
2024/03/04 08:40:30;;;;;;;57.22;26.27;;;7.30;99.90;;;-144.05;89.00;56927.41;5021042;28;20022;-83
2024/03/04 08:42:57;;;;;;;56.47;26.10;;;7.20;99.90;;;-144.05;89.48;56916.81;5020489;28;20117;-81
2024/03/04 08:45:23;;;;;;;48.33;23.52;;;;;;;-144.05;89.40;56940.16;5028861;28;20030;-80
2024/03/04 08:47:50;;;;;;;52.47;23.45;;;8.50;99.90;;;-144.05;89.03;56946.53;5025068;28;20568;-81
2024/03/04 08:50:16;;;;;;;50.80;24.08;;;9.10;99.90;;;-144.05;88.59;56925.28;5030816;28;20046;-81
2024/03/04 08:52:42;;;;;;;50.33;22.60;;;6.70;99.90;;;-144.05;88.46;56952.91;5021124;28;20110;-82
2024/03/04 08:55:08;;;;;;;49.60;23.50;;;8.80;99.90;;;-144.05;88.08;56912.56;5023774;28;20041;-79
2024/03/04 08:57:34;;;;;;;46.55;22.85;;;7.20;99.90;;;-144.05;87.78;56927.41;5022049;28;20037;-79
2024/03/04 09:00:00;;;;;;;49.22;25.27;;;;;;;-144.05;88.03;56935.91;5035605;28;20030;-78
2024/03/04 09:02:26;;;;;;;59.90;23.05;;;8.30;99.90;;;-144.05;87.52;56933.78;5020972;28;20022;-80
2024/03/04 09:04:52;;;;;;;45.10;18.80;;;;;;;-144.05;86.47;56938.03;5035889;28;20029;-81
2024/03/04 09:07:18;;;;;;;38.85;19.25;;;7.20;99.90;;;-144.05;86.20;56929.53;5019644;28;20088;-77
2024/03/04 09:09:53;;;;;;;42.38;20.30;;;7.00;99.90;;;-144.05;85.87;56912.56;5021400;28;20041;-81
2024/03/04 09:12:21;;;;;;;43.33;19.77;;;;;;;-144.05;85.49;56912.56;5020951;28;20018;-80
2024/03/04 09:14:47;;;;;;;37.47;18.02;;;;;;;-144.05;85.30;56925.28;5019578;28;20068;-78
2024/03/04 09:17:13;;;;;;;39.97;18.23;;;;;;;-144.05;85.41;56908.31;5020120;28;20029;-78
2024/03/04 09:19:41;;;;;;;41.00;20.08;;;8.40;99.90;;;-144.05;85.26;56925.28;5019753;28;20030;-81
2024/03/04 09:22:08;;;;;;;38.70;18.75;;;10.80;99.90;;;-144.05;85.09;56914.69;5019349;28;20537;-80
2024/03/04 09:24:34;;;;;;;44.53;19.45;;;10.60;99.90;;;-144.05;85.35;56933.78;5037512;28;20029;-81
2024/03/04 09:27:03;;;;;;;43.03;20.27;;;9.30;99.90;;;-144.05;85.32;56931.66;5021494;28;20030;-81
2024/03/04 09:29:29;;;;;;;41.05;20.08;;;10.60;99.90;;;-144.05;85.57;56938.03;5020631;28;20030;-81
2024/03/04 09:31:55;;;;;;;45.95;19.92;;;7.10;99.90;;;-144.05;85.87;56925.28;5018170;28;20060;-81
2024/03/04 09:34:21;;;;;;;46.15;21.50;;;;;;;-144.05;85.94;56940.16;5012410;28;20471;-81
2024/03/04 09:36:47;;;;;;;47.22;22.15;;;;;;;-144.05;85.63;56929.53;5019952;28;20133;-83
2024/03/04 09:39:13;;;;;;;48.92;20.80;;;7.50;99.90;;;-144.05;86.13;56940.16;5019007;28;20022;-81
2024/03/04 09:41:39;;;;;;;53.60;23.98;;;8.30;99.90;;;-144.05;86.40;56925.28;5021365;28;20072;-81
2024/03/04 09:44:06;;;;;;;53.05;23.27;;;8.80;99.90;;;-144.05;86.66;56931.66;5036016;28;20083;-77
2024/03/04 09:46:35;;;;;;;46.22;21.52;;;;;;;-144.05;86.67;56948.66;5021437;28;20018;-81
2024/03/04 09:49:03;;;;;;;52.85;23.33;;;8.80;99.90;;;-144.05;87.13;56921.06;5021366;28;20029;-81
2024/03/04 09:51:33;;;;;;;48.90;21.17;;;8.10;99.90;;;-144.05;86.89;56931.66;5021497;28;20127;-82
2024/03/04 09:54:02;;;;;;;51.38;23.75;;;8.60;99.90;;;-144.05;87.37;56929.53;5018412;28;20041;-79
2024/03/04 09:56:28;;;;;;;46.58;22.20;;;10.60;99.90;;;-144.05;86.97;56910.44;5021058;28;20033;-81
2024/03/04 09:58:55;;;;;;;49.00;23.17;;;;;;;-144.05;87.05;56931.66;5019842;28;20026;-81
2024/03/04 10:01:22;;;;;;;44.90;22.63;;;7.80;99.90;;;-144.05;86.95;56927.41;5013340;28;20041;-81
2024/03/04 10:03:51;;;;;;;49.53;23.92;;;11.00;99.90;;;-144.05;87.12;56950.78;5018833;28;20062;-82
2024/03/04 10:06:17;;;;;;;49.30;22.10;;;8.70;99.90;;;-144.05;86.22;56952.91;5019335;28;20034;-80
2024/03/04 10:08:43;;;;;;;44.90;21.38;;;10.70;99.90;;;-144.05;85.88;56955.03;5026167;28;20029;-81
2024/03/04 10:11:09;;;;;;;49.38;23.15;;;7.20;99.90;;;-144.05;86.34;56912.56;5019865;28;20192;-80
2024/03/04 10:13:36;;;;;;;47.05;21.58;;;10.70;99.90;;;-144.05;86.14;56929.53;5030991;28;20026;-79
2024/03/04 10:16:04;;;;;;;45.33;20.95;;;10.90;99.90;;;-144.05;86.05;56908.31;5034061;28;20022;-79
2024/03/04 10:18:30;;;;;;;55.33;23.38;;;7.40;99.90;;;-144.05;85.31;56944.41;5033396;28;20397;-83